Morton, Pennsylvania
Current Conditions -  °F | °C
As of 1:35 AM on Monday 24 Nov 2014 (Local Time) from KPHL Reporting Station
Moderate Rain Moderate Rain  
Wind Chill: 14°   Ceiling: 900
Heat Index: 14°   Visibility: 2.5mi
Dew Point: 12°   Wind: 12mph
Humidity: 89%   Direction: 120°ESE
Pressure: 29.81"   Gusts: NA
Location:  39.91°N, 75.32°W
Report Text: KPHL 240635Z 12010KT 2 1/2SM RA BR BKN009 BKN029 OVC035 14/12 A2981 RMK AO2 PRESFR P0009 T01390122 $
Loading
Personal Weather Stations






























Interactive Weather Map New forecast layout! Learn more

10-Day Weather Forecast

Advertisements
Track Severe Weather on mobile